createdAt,value
2017-10-17T00:00:21.963Z,15.71
2017-10-17T00:01:02.465Z,15.69
2017-10-17T00:01:42.973Z,15.68
2017-10-17T00:02:23.502Z,15.57
2017-10-17T00:03:04.042Z,15.69
2017-10-17T00:03:44.584Z,15.65
2017-10-17T00:04:25.115Z,15.6
2017-10-17T00:05:05.606Z,15.64
2017-10-17T00:05:46.110Z,15.54
2017-10-17T00:06:26.619Z,15.47
2017-10-17T00:07:07.160Z,15.5
2017-10-17T00:07:47.697Z,15.5
2017-10-17T00:08:28.235Z,15.5
2017-10-17T00:09:08.773Z,15.47
2017-10-17T00:09:49.280Z,15.49
2017-10-17T00:10:29.822Z,15.54
2017-10-17T00:11:10.327Z,15.57
2017-10-17T00:11:50.841Z,15.59
2017-10-17T00:12:31.355Z,15.51
2017-10-17T00:13:11.858Z,15.47
2017-10-17T00:13:52.381Z,15.49
2017-10-17T00:14:32.910Z,15.47
2017-10-17T00:15:13.447Z,15.49
2017-10-17T00:15:53.963Z,15.49
2017-10-17T00:16:34.498Z,15.39
2017-10-17T00:17:15.035Z,15.39
2017-10-17T00:17:55.564Z,15.44
2017-10-17T00:18:36.150Z,15.39
2017-10-17T00:19:16.694Z,15.47
2017-10-17T00:19:57.231Z,15.44
2017-10-17T00:20:37.776Z,15.39
2017-10-17T00:21:18.302Z,15.47
2017-10-17T00:21:58.866Z,15.41
2017-10-17T00:22:39.405Z,15.41
2017-10-17T00:23:19.960Z,15.32
2017-10-17T00:24:00.456Z,15.39
2017-10-17T00:24:40.993Z,15.31
2017-10-17T00:25:21.516Z,15.29
2017-10-17T00:26:02.055Z,15.34
2017-10-17T00:26:42.586Z,15.41
2017-10-17T00:27:23.103Z,15.36
2017-10-17T00:28:03.642Z,15.32
2017-10-17T00:28:44.179Z,15.35
2017-10-17T00:29:24.716Z,15.31
2017-10-17T00:30:05.250Z,15.31
2017-10-17T00:30:45.770Z,15.36
2017-10-17T00:31:26.272Z,15.39
2017-10-17T00:32:06.811Z,15.35
2017-10-17T00:32:47.323Z,15.31
2017-10-17T00:33:27.818Z,15.27
2017-10-17T00:34:08.329Z,15.38
2017-10-17T00:34:48.854Z,15.31
2017-10-17T00:35:29.366Z,15.39
2017-10-17T00:36:09.874Z,15.28
2017-10-17T00:36:50.409Z,15.35
2017-10-17T00:37:30.930Z,15.32
2017-10-17T00:38:11.440Z,15.35
2017-10-17T00:38:51.959Z,15.31
2017-10-17T00:39:32.451Z,15.32
2017-10-17T00:40:12.963Z,15.36
2017-10-17T00:40:53.463Z,15.31
2017-10-17T00:41:34.001Z,15.31
2017-10-17T00:42:14.524Z,15.23
2017-10-17T00:42:55.057Z,15.28
2017-10-17T00:43:35.602Z,15.29
2017-10-17T00:44:16.142Z,15.17
2017-10-17T00:44:56.687Z,15.23
2017-10-17T00:45:37.218Z,15.21
2017-10-17T00:46:17.761Z,15.19
2017-10-17T00:46:58.283Z,15.13
2017-10-17T00:47:38.816Z,15.13
2017-10-17T00:48:19.369Z,15.17
2017-10-17T00:48:59.891Z,15.11
2017-10-17T00:49:40.427Z,15.17
2017-10-17T00:50:20.971Z,15.14
2017-10-17T00:51:01.476Z,15.16
2017-10-17T00:51:41.982Z,15.14
2017-10-17T00:52:22.525Z,15.17
2017-10-17T00:53:03.040Z,15.21
2017-10-17T00:53:43.551Z,15.25
2017-10-17T00:54:24.094Z,15.17
2017-10-17T00:55:04.619Z,15.27
2017-10-17T00:55:45.155Z,15.21
2017-10-17T00:56:25.684Z,15.25
2017-10-17T00:57:06.229Z,15.19
2017-10-17T00:57:46.728Z,15.2
2017-10-17T00:58:27.242Z,15.25
2017-10-17T00:59:07.773Z,15.25
2017-10-17T00:59:48.293Z,15.23
2017-10-17T01:00:28.829Z,15.21
2017-10-17T01:01:09.364Z,15.2
2017-10-17T01:01:49.889Z,15.25
2017-10-17T01:02:30.418Z,15.19
2017-10-17T01:03:10.961Z,15.16
2017-10-17T01:03:51.497Z,15.19
2017-10-17T01:04:32.048Z,15.17
2017-10-17T01:05:12.587Z,15.16
2017-10-17T01:05:53.116Z,15.14
2017-10-17T01:06:33.626Z,15.1
2017-10-17T01:07:14.136Z,15.17
2017-10-17T01:07:54.650Z,15.13
2017-10-17T01:08:35.157Z,15.13
2017-10-17T01:09:15.649Z,15.17
2017-10-17T01:09:56.150Z,15.09
2017-10-17T01:10:36.655Z,15.06
2017-10-17T01:11:17.196Z,15.16
2017-10-17T01:11:57.704Z,15.11
2017-10-17T01:12:38.225Z,15.14
2017-10-17T01:13:18.738Z,15.03
2017-10-17T01:13:59.264Z,15.09
2017-10-17T01:14:39.749Z,15.09
2017-10-17T01:15:20.288Z,15.09
2017-10-17T01:16:00.789Z,15.09
2017-10-17T01:16:41.302Z,15.07
2017-10-17T01:17:21.831Z,15.03
2017-10-17T01:18:02.335Z,15.02
2017-10-17T01:18:42.844Z,15.06
2017-10-17T01:19:23.352Z,15.11
2017-10-17T01:20:03.864Z,15.07
2017-10-17T01:20:44.397Z,15.06
2017-10-17T01:21:24.942Z,15.06
2017-10-17T01:22:05.465Z,15.07
2017-10-17T01:22:45.991Z,15.07
2017-10-17T01:23:26.499Z,15.07
2017-10-17T01:24:07.024Z,15.03
2017-10-17T01:24:47.557Z,15.06
2017-10-17T01:25:28.090Z,15.06
2017-10-17T01:26:08.621Z,15.09
2017-10-17T01:26:49.152Z,15.09
2017-10-17T01:27:29.676Z,15.09
2017-10-17T01:28:10.219Z,15.02
2017-10-17T01:28:50.746Z,15.1
2017-10-17T01:29:31.282Z,15.03
2017-10-17T01:30:11.823Z,15.03
2017-10-17T01:30:52.359Z,15.09
2017-10-17T01:31:32.906Z,15.07
2017-10-17T01:32:13.453Z,15.02
2017-10-17T01:33:00.681Z,15.09
2017-10-17T01:33:41.210Z,15.03
2017-10-17T01:34:21.785Z,15.06
2017-10-17T01:35:02.330Z,15.09
2017-10-17T01:35:42.867Z,15.11
2017-10-17T01:36:23.400Z,15.09
2017-10-17T01:37:03.937Z,15.11
2017-10-17T01:37:44.472Z,15.06
2017-10-17T01:38:25.010Z,15.16
2017-10-17T01:39:05.527Z,15.07
2017-10-17T01:39:46.178Z,15.06
2017-10-17T01:40:26.697Z,15.07
2017-10-17T01:41:07.220Z,15.06
2017-10-17T01:41:47.733Z,15.09
2017-10-17T01:42:28.246Z,15.07
2017-10-17T01:43:08.769Z,15.03
2017-10-17T01:43:49.302Z,15.07
2017-10-17T01:44:29.821Z,15.06
2017-10-17T01:45:10.348Z,15.06
2017-10-17T01:45:50.905Z,15.06
2017-10-17T01:46:31.435Z,15.03
2017-10-17T01:47:11.979Z,15.11
2017-10-17T01:47:52.490Z,15.06
2017-10-17T01:48:32.991Z,15.09
2017-10-17T01:49:13.526Z,15.06
2017-10-17T01:49:54.046Z,15.02
2017-10-17T01:50:34.574Z,15.1
2017-10-17T01:51:15.120Z,14.99
2017-10-17T01:51:55.640Z,14.98
2017-10-17T01:52:36.179Z,14.95
2017-10-17T01:53:16.706Z,14.96
2017-10-17T01:53:57.225Z,14.95
2017-10-17T01:54:37.754Z,14.98
2017-10-17T01:55:18.290Z,14.94
2017-10-17T01:55:58.812Z,14.94
2017-10-17T01:56:39.352Z,14.94
2017-10-17T01:57:19.892Z,14.94
2017-10-17T01:58:00.433Z,14.86
2017-10-17T01:58:40.969Z,14.91
2017-10-17T01:59:21.509Z,14.89
2017-10-17T02:00:02.046Z,14.91
2017-10-17T02:00:42.584Z,14.89
2017-10-17T02:01:23.122Z,14.96
2017-10-17T02:02:03.659Z,14.94
2017-10-17T02:02:44.200Z,14.89
2017-10-17T02:03:24.721Z,14.86
2017-10-17T02:04:05.245Z,14.86
2017-10-17T02:04:45.787Z,14.83
2017-10-17T02:05:26.321Z,14.92
2017-10-17T02:06:06.858Z,14.95
2017-10-17T02:06:47.393Z,14.86
2017-10-17T02:07:27.925Z,14.94
2017-10-17T02:08:08.461Z,14.83
2017-10-17T02:08:48.984Z,14.98
2017-10-17T02:09:29.514Z,14.96
2017-10-17T02:10:10.049Z,14.91
2017-10-17T02:10:50.590Z,14.94
2017-10-17T02:11:31.126Z,14.99
2017-10-17T02:12:11.663Z,14.95
2017-10-17T02:12:52.205Z,14.86
2017-10-17T02:13:32.736Z,14.88
2017-10-17T02:14:13.272Z,14.84
2017-10-17T02:14:53.810Z,14.88
2017-10-17T02:15:34.364Z,14.88
2017-10-17T02:16:14.889Z,14.84
2017-10-17T02:16:55.431Z,14.78
2017-10-17T02:17:35.980Z,14.86
2017-10-17T02:18:16.523Z,14.86
2017-10-17T02:18:57.060Z,14.77
2017-10-17T02:19:37.598Z,14.84
2017-10-17T02:20:18.155Z,14.7
2017-10-17T02:20:58.667Z,14.81
2017-10-17T02:21:39.203Z,14.86
2017-10-17T02:22:19.730Z,14.72
2017-10-17T02:23:00.266Z,14.83
2017-10-17T02:23:40.802Z,14.8
2017-10-17T02:24:21.342Z,14.81
2017-10-17T02:25:01.882Z,14.75
2017-10-17T02:25:42.425Z,14.78
2017-10-17T02:26:22.954Z,14.75
2017-10-17T02:27:03.497Z,14.78
2017-10-17T02:27:44.042Z,14.73
2017-10-17T02:28:24.570Z,14.77
2017-10-17T02:29:05.108Z,14.77
2017-10-17T02:29:45.644Z,14.78
2017-10-17T02:30:26.178Z,14.78
2017-10-17T02:31:06.710Z,14.8
2017-10-17T02:31:47.246Z,14.8
2017-10-17T02:32:27.783Z,14.73
2017-10-17T02:33:08.314Z,14.72
2017-10-17T02:33:48.869Z,14.77
2017-10-17T02:34:29.383Z,14.77
2017-10-17T02:35:09.913Z,14.72
2017-10-17T02:35:50.468Z,14.78
2017-10-17T02:36:30.992Z,14.81
2017-10-17T02:37:11.544Z,14.72
2017-10-17T02:37:52.079Z,14.75
2017-10-17T02:38:32.621Z,14.68
2017-10-17T02:39:13.146Z,14.77
2017-10-17T02:39:53.678Z,14.7
2017-10-17T02:40:34.210Z,14.7
2017-10-17T02:41:14.745Z,14.73
2017-10-17T02:41:55.283Z,14.72
2017-10-17T02:42:35.810Z,14.72
2017-10-17T02:43:16.347Z,14.64
2017-10-17T02:43:56.865Z,14.73
2017-10-17T02:44:37.400Z,14.75
2017-10-17T02:45:17.915Z,14.75
2017-10-17T02:45:58.453Z,14.7
2017-10-17T02:46:38.984Z,14.73
2017-10-17T02:47:19.519Z,14.78
2017-10-17T02:48:00.049Z,14.75
2017-10-17T02:48:40.596Z,14.75
2017-10-17T02:49:21.126Z,14.75
2017-10-17T02:50:01.663Z,14.7
2017-10-17T02:50:42.208Z,14.8
2017-10-17T02:51:22.741Z,14.7
2017-10-17T02:52:03.267Z,14.73
2017-10-17T02:52:43.805Z,14.7
2017-10-17T02:53:24.338Z,14.69
2017-10-17T02:54:04.882Z,14.75
2017-10-17T02:54:45.418Z,14.64
2017-10-17T02:55:25.955Z,14.61
2017-10-17T02:56:06.620Z,14.6
2017-10-17T02:56:47.144Z,14.65
2017-10-17T02:57:27.736Z,14.58
2017-10-17T02:58:08.520Z,14.7
2017-10-17T02:58:49.068Z,14.6
2017-10-17T02:59:29.604Z,14.7
2017-10-17T03:00:10.137Z,14.65
2017-10-17T03:00:50.671Z,14.7
2017-10-17T03:01:31.207Z,14.58
2017-10-17T03:02:11.735Z,14.64
2017-10-17T03:02:52.274Z,14.65
2017-10-17T03:03:32.806Z,14.61
2017-10-17T03:04:13.337Z,14.68
2017-10-17T03:04:55.390Z,14.62
2017-10-17T03:05:35.925Z,14.61
2017-10-17T03:06:16.458Z,14.62
2017-10-17T03:06:56.999Z,14.57
2017-10-17T03:07:37.527Z,14.69
2017-10-17T03:08:18.065Z,14.69
2017-10-17T03:08:58.602Z,14.69
2017-10-17T03:09:39.130Z,14.7
2017-10-17T03:10:19.672Z,14.68
2017-10-17T03:11:00.202Z,14.7
2017-10-17T03:11:40.740Z,14.68
2017-10-17T03:12:21.281Z,14.69
2017-10-17T03:13:01.816Z,14.8
2017-10-17T03:13:42.352Z,14.7
2017-10-17T03:14:22.874Z,14.65
2017-10-17T03:15:03.412Z,14.73
2017-10-17T03:15:43.946Z,14.55
2017-10-17T03:16:24.479Z,14.61
2017-10-17T03:17:05.020Z,14.68
2017-10-17T03:17:45.556Z,14.58
2017-10-17T03:18:26.091Z,14.62
2017-10-17T03:19:06.627Z,14.65
2017-10-17T03:19:47.168Z,14.58
2017-10-17T03:20:27.709Z,14.65
2017-10-17T03:21:08.248Z,14.68
2017-10-17T03:21:48.796Z,14.61
2017-10-17T03:22:29.314Z,14.55
2017-10-17T03:23:09.832Z,14.64
2017-10-17T03:23:50.362Z,14.6
2017-10-17T03:24:30.899Z,14.55
2017-10-17T03:25:11.436Z,14.55
2017-10-17T03:25:51.969Z,14.55
2017-10-17T03:26:32.507Z,14.54
2017-10-17T03:27:13.043Z,14.64
2017-10-17T03:27:53.629Z,14.52
2017-10-17T03:28:34.168Z,14.57
2017-10-17T03:29:14.703Z,14.55
2017-10-17T03:29:55.238Z,14.57
2017-10-17T03:30:35.777Z,14.57
2017-10-17T03:31:16.331Z,14.54
2017-10-17T03:31:56.857Z,14.57
2017-10-17T03:32:37.443Z,14.46
2017-10-17T03:33:17.979Z,14.46
2017-10-17T03:33:58.532Z,14.5
2017-10-17T03:34:39.082Z,14.42
2017-10-17T03:35:19.613Z,14.42
2017-10-17T03:36:00.153Z,14.43
2017-10-17T03:36:40.690Z,14.4
2017-10-17T03:37:21.232Z,14.36
2017-10-17T03:38:01.770Z,14.4
2017-10-17T03:38:42.298Z,14.33
2017-10-17T03:39:22.836Z,14.32
2017-10-17T03:40:03.374Z,14.37
2017-10-17T03:40:43.905Z,14.36
2017-10-17T03:41:24.445Z,14.32
2017-10-17T03:42:04.975Z,14.24
2017-10-17T03:42:45.509Z,14.27
2017-10-17T03:43:26.050Z,14.33
2017-10-17T03:44:06.578Z,14.28
2017-10-17T03:44:47.122Z,14.21
2017-10-17T03:45:27.641Z,14.22
2017-10-17T03:46:08.164Z,14.22
2017-10-17T03:46:48.702Z,14.2
2017-10-17T03:47:29.243Z,14.29
2017-10-17T03:48:09.785Z,14.25
2017-10-17T03:48:50.320Z,14.21
2017-10-17T03:49:30.862Z,14.24
2017-10-17T03:50:11.391Z,14.22
2017-10-17T03:50:51.926Z,14.17
2017-10-17T03:51:32.463Z,14.25
2017-10-17T03:52:13.059Z,14.24
2017-10-17T03:52:53.880Z,14.18
2017-10-17T03:53:34.588Z,14.21
2017-10-17T03:54:15.391Z,14.35
2017-10-17T03:54:56.079Z,14.24
2017-10-17T03:55:36.817Z,14.25
2017-10-17T03:56:17.516Z,14.25
2017-10-17T03:56:58.335Z,14.24
2017-10-17T03:57:39.076Z,14.25
2017-10-17T03:58:19.757Z,14.2
2017-10-17T03:59:01.613Z,14.2
2017-10-17T03:59:44.134Z,14.22
2017-10-17T04:00:26.199Z,14.25
2017-10-17T04:01:08.406Z,14.32
2017-10-17T04:01:50.486Z,14.27
2017-10-17T04:02:31.418Z,14.24
2017-10-17T04:03:11.977Z,14.24
2017-10-17T04:03:52.518Z,14.25
2017-10-17T04:04:33.052Z,14.29
2017-10-17T04:05:14.309Z,14.24
2017-10-17T04:05:56.347Z,14.35
2017-10-17T04:07:56.779Z,14.22
2017-10-17T04:08:38.901Z,14.22
2017-10-17T04:09:19.444Z,14.29
2017-10-17T04:09:59.979Z,14.32
2017-10-17T04:10:40.508Z,14.25
2017-10-17T04:11:22.263Z,14.22
2017-10-17T04:13:16.969Z,14.18
2017-10-17T04:13:59.374Z,14.24
2017-10-17T04:14:41.234Z,14.22
2017-10-17T04:15:21.770Z,14.22
2017-10-17T04:16:02.311Z,14.22
2017-10-17T04:16:42.838Z,14.22
2017-10-17T04:17:23.725Z,14.2
2017-10-17T04:18:04.500Z,14.21
2017-10-17T04:18:45.118Z,14.21
2017-10-17T04:19:25.701Z,14.2
2017-10-17T04:20:06.189Z,14.2
2017-10-17T04:20:46.723Z,14.24
2017-10-17T04:21:27.348Z,14.24
2017-10-17T04:22:08.114Z,14.22
2017-10-17T04:22:48.669Z,14.22
2017-10-17T04:23:29.176Z,14.17
2017-10-17T04:24:09.704Z,14.24
2017-10-17T04:24:50.236Z,14.2
2017-10-17T04:25:30.796Z,14.21
2017-10-17T04:26:12.299Z,14.2
2017-10-17T04:26:54.656Z,14.2
2017-10-17T04:27:36.618Z,14.2
2017-10-17T04:28:19.129Z,14.21
2017-10-17T04:29:01.206Z,14.21
2017-10-17T04:29:43.360Z,14.21
2017-10-17T04:30:23.904Z,14.25
2017-10-17T04:31:04.416Z,14.2
2017-10-17T04:31:44.915Z,14.18
2017-10-17T04:32:25.436Z,14.22
2017-10-17T04:33:05.964Z,14.18
2017-10-17T04:33:46.498Z,14.17
2017-10-17T04:34:27.036Z,14.21
2017-10-17T04:35:07.562Z,14.17
2017-10-17T04:35:48.098Z,14.12
2017-10-17T04:36:28.634Z,14.04
2017-10-17T04:37:09.180Z,14.07
2017-10-17T04:37:49.708Z,14.06
2017-10-17T04:38:30.243Z,14.02
2017-10-17T04:39:10.774Z,14.04
2017-10-17T04:39:51.315Z,14.02
2017-10-17T04:40:31.854Z,14.02
2017-10-17T04:41:12.387Z,14.09
2017-10-17T04:41:54.873Z,14.09
2017-10-17T04:42:37.169Z,14.03
2017-10-17T04:43:18.686Z,14.06
2017-10-17T04:44:00.811Z,14.03
2017-10-17T04:44:43.004Z,14.04
2017-10-17T04:45:23.537Z,14.03
2017-10-17T04:46:04.065Z,14
2017-10-17T04:46:44.580Z,14.03
2017-10-17T04:47:25.093Z,14.04
2017-10-17T04:48:05.658Z,14.04
2017-10-17T04:48:46.221Z,13.99
2017-10-17T04:49:26.749Z,13.96
2017-10-17T04:50:07.281Z,14.02
2017-10-17T04:50:47.818Z,13.97
2017-10-17T04:51:28.334Z,14.04
2017-10-17T04:52:08.879Z,14.04
2017-10-17T04:52:49.413Z,14.04
2017-10-17T04:53:29.941Z,14
2017-10-17T04:54:10.471Z,13.97
2017-10-17T04:54:51.000Z,14.03
2017-10-17T04:55:31.550Z,13.97
2017-10-17T04:56:12.438Z,14.02
2017-10-17T04:58:28.086Z,13.97
2017-10-17T04:59:10.302Z,14.02
2017-10-17T04:59:52.880Z,14.07
2017-10-17T05:00:33.917Z,14.04
2017-10-17T05:01:14.443Z,13.99
2017-10-17T05:01:54.983Z,14
2017-10-17T05:02:35.523Z,13.97
2017-10-17T05:03:16.053Z,13.96
2017-10-17T05:03:56.563Z,13.88
2017-10-17T05:04:37.107Z,13.96
2017-10-17T05:05:17.618Z,13.95
2017-10-17T05:05:58.143Z,13.95
2017-10-17T05:06:38.673Z,13.97
2017-10-17T05:07:19.183Z,13.88
2017-10-17T05:07:59.692Z,13.91
2017-10-17T05:08:40.205Z,13.91
2017-10-17T05:09:20.731Z,13.91
2017-10-17T05:10:01.255Z,13.91
2017-10-17T05:10:41.780Z,13.88
2017-10-17T05:11:22.292Z,13.88
2017-10-17T05:12:02.832Z,13.79
2017-10-17T05:12:43.324Z,13.95
2017-10-17T05:13:23.818Z,13.91
2017-10-17T05:14:04.344Z,13.87
2017-10-17T05:14:44.866Z,13.87
2017-10-17T05:15:25.389Z,13.79
2017-10-17T05:16:05.926Z,13.89
2017-10-17T05:16:46.459Z,13.81
2017-10-17T05:17:27.000Z,13.85
2017-10-17T05:18:07.528Z,13.85
2017-10-17T05:18:48.074Z,13.81
2017-10-17T05:19:28.605Z,13.81
2017-10-17T05:20:09.164Z,13.85
2017-10-17T05:20:49.699Z,13.82
2017-10-17T05:21:30.230Z,13.89
2017-10-17T05:22:10.772Z,13.84
2017-10-17T05:22:51.307Z,13.85
2017-10-17T05:23:31.852Z,13.85
2017-10-17T05:24:12.384Z,13.84
2017-10-17T05:24:52.910Z,13.89
2017-10-17T05:25:33.442Z,13.88
2017-10-17T05:26:13.981Z,13.87
2017-10-17T05:26:54.515Z,13.84
2017-10-17T05:27:35.054Z,13.87
2017-10-17T05:28:15.602Z,13.84
2017-10-17T05:28:56.104Z,13.84
2017-10-17T05:29:36.634Z,13.79
2017-10-17T05:30:17.153Z,13.84
2017-10-17T05:30:57.659Z,13.82
2017-10-17T05:31:38.189Z,13.81
2017-10-17T05:32:18.743Z,13.78
2017-10-17T05:32:59.248Z,13.85
2017-10-17T05:33:39.781Z,13.79
2017-10-17T05:34:20.285Z,13.79
2017-10-17T05:35:00.797Z,13.79
2017-10-17T05:35:41.356Z,13.84
2017-10-17T05:36:21.843Z,13.79
2017-10-17T05:37:02.360Z,13.78
2017-10-17T05:37:42.896Z,13.73
2017-10-17T05:38:23.442Z,13.81
2017-10-17T05:39:03.984Z,13.78
2017-10-17T05:39:44.499Z,13.81
2017-10-17T05:40:25.058Z,13.79
2017-10-17T05:41:05.591Z,13.81
2017-10-17T05:41:46.141Z,13.73
2017-10-17T05:42:26.673Z,13.73
2017-10-17T05:43:07.213Z,13.71
2017-10-17T05:43:47.749Z,13.71
2017-10-17T05:44:28.272Z,13.69
2017-10-17T05:45:08.808Z,13.71
2017-10-17T05:45:49.338Z,13.67
2017-10-17T05:46:29.944Z,13.71
2017-10-17T05:47:10.478Z,13.7
2017-10-17T05:47:51.016Z,13.7
2017-10-17T05:48:31.542Z,13.6
2017-10-17T05:49:12.082Z,13.62
2017-10-17T05:49:52.655Z,13.57
2017-10-17T05:50:33.186Z,13.6
2017-10-17T05:51:13.722Z,13.64
2017-10-17T05:51:54.257Z,13.55
2017-10-17T05:52:34.786Z,13.64
2017-10-17T05:53:15.362Z,13.6
2017-10-17T05:53:55.904Z,13.51
2017-10-17T05:54:36.480Z,13.54
2017-10-17T05:55:17.014Z,13.54
2017-10-17T05:55:57.555Z,13.54
2017-10-17T05:56:38.090Z,13.57
2017-10-17T05:57:18.627Z,13.6
2017-10-17T05:57:59.159Z,13.57
2017-10-17T05:58:39.695Z,13.54
2017-10-17T05:59:20.224Z,13.57
2017-10-17T06:00:00.761Z,13.59
2017-10-17T06:00:41.294Z,13.57
2017-10-17T06:01:21.838Z,13.55
2017-10-17T06:02:02.416Z,13.54
2017-10-17T06:02:42.949Z,13.59
2017-10-17T06:03:23.475Z,13.51
2017-10-17T06:04:04.010Z,13.59
2017-10-17T06:04:44.530Z,13.52
2017-10-17T06:05:25.059Z,13.57
2017-10-17T06:06:05.590Z,13.55
2017-10-17T06:06:46.130Z,13.54
2017-10-17T06:07:26.669Z,13.55
2017-10-17T06:08:07.198Z,13.52
2017-10-17T06:08:47.760Z,13.54
2017-10-17T06:09:28.288Z,13.52
2017-10-17T06:10:08.864Z,13.52
2017-10-17T06:10:49.395Z,13.52
2017-10-17T06:11:29.929Z,13.49
2017-10-17T06:12:10.456Z,13.54
2017-10-17T06:12:50.987Z,13.51
2017-10-17T06:13:31.513Z,13.51
2017-10-17T06:14:12.045Z,13.55
2017-10-17T06:14:52.579Z,13.52
2017-10-17T06:15:33.123Z,13.49
2017-10-17T06:16:13.644Z,13.46
2017-10-17T06:16:54.179Z,13.55
2017-10-17T06:17:34.708Z,13.42
2017-10-17T06:18:15.246Z,13.45
2017-10-17T06:18:55.778Z,13.33
2017-10-17T06:19:36.313Z,13.44
2017-10-17T06:20:16.846Z,13.42
2017-10-17T06:20:57.373Z,13.41
2017-10-17T06:21:37.901Z,13.42
2017-10-17T06:22:18.428Z,13.44
2017-10-17T06:22:58.963Z,13.42
2017-10-17T06:23:39.489Z,13.41
2017-10-17T06:24:20.013Z,13.41
2017-10-17T06:25:00.556Z,13.44
2017-10-17T06:25:41.095Z,13.45
2017-10-17T06:26:21.639Z,13.44
2017-10-17T06:27:02.153Z,13.48
2017-10-17T06:27:42.685Z,13.42
2017-10-17T06:28:23.219Z,13.46
2017-10-17T06:29:03.756Z,13.44
2017-10-17T06:29:44.282Z,13.41
2017-10-17T06:30:24.814Z,13.6
2017-10-17T06:31:05.342Z,13.42
2017-10-17T06:31:45.869Z,13.46
2017-10-17T06:32:26.407Z,13.48
2017-10-17T06:33:06.943Z,13.52
2017-10-17T06:33:47.477Z,13.48
2017-10-17T06:34:28.000Z,13.54
2017-10-17T06:35:08.538Z,13.48
2017-10-17T06:35:49.071Z,13.54
2017-10-17T06:36:29.609Z,13.54
2017-10-17T06:37:10.141Z,13.51
2017-10-17T06:37:50.680Z,13.49
2017-10-17T06:38:31.205Z,13.52
2017-10-17T06:39:11.734Z,13.48
2017-10-17T06:39:52.265Z,13.54
2017-10-17T06:40:32.796Z,13.6
2017-10-17T06:41:13.325Z,13.6
2017-10-17T06:41:53.851Z,13.55
2017-10-17T06:42:34.429Z,13.6
2017-10-17T06:43:14.961Z,13.52
2017-10-17T06:43:55.502Z,13.48
2017-10-17T06:44:36.038Z,13.57
2017-10-17T06:45:16.575Z,13.54
2017-10-17T06:45:57.108Z,13.52
2017-10-17T06:46:37.648Z,13.55
2017-10-17T06:47:18.204Z,13.52
2017-10-17T06:47:58.701Z,13.52
2017-10-17T06:48:39.219Z,13.49
2017-10-17T06:49:19.752Z,13.54
2017-10-17T06:50:00.281Z,13.55
2017-10-17T06:50:40.833Z,13.51
2017-10-17T06:51:21.354Z,13.52
2017-10-17T06:52:01.892Z,13.49
2017-10-17T06:52:42.437Z,13.49
2017-10-17T06:53:22.973Z,13.52
2017-10-17T06:54:03.505Z,13.49
2017-10-17T06:54:44.010Z,13.55
2017-10-17T06:55:24.533Z,13.52
2017-10-17T06:56:05.082Z,13.51
2017-10-17T06:56:45.608Z,13.54
2017-10-17T06:57:26.139Z,13.54
2017-10-17T06:58:06.704Z,13.59
2017-10-17T06:58:47.236Z,13.57
2017-10-17T06:59:27.769Z,13.57
2017-10-17T07:00:08.309Z,13.57
2017-10-17T07:00:48.849Z,13.54
2017-10-17T07:01:29.384Z,13.57
2017-10-17T07:02:09.904Z,13.6
2017-10-17T07:02:50.426Z,13.62
2017-10-17T07:03:30.962Z,13.59
2017-10-17T07:04:11.511Z,13.59
2017-10-17T07:04:52.033Z,13.6
2017-10-17T07:05:32.563Z,13.67
2017-10-17T07:06:13.116Z,13.66
2017-10-17T07:06:53.698Z,13.69
2017-10-17T07:07:34.233Z,13.7
2017-10-17T07:08:14.771Z,13.7
2017-10-17T07:08:55.311Z,13.67
2017-10-17T07:09:35.849Z,13.7
2017-10-17T07:10:16.384Z,13.7
2017-10-17T07:10:56.938Z,13.78
2017-10-17T07:11:37.447Z,13.78
2017-10-17T07:12:17.996Z,13.78
2017-10-17T07:12:58.532Z,13.85
2017-10-17T07:13:39.038Z,13.81
2017-10-17T07:14:19.568Z,13.85
2017-10-17T07:15:00.130Z,13.82
2017-10-17T07:15:40.639Z,13.82
2017-10-17T07:16:21.156Z,13.85
2017-10-17T07:17:01.701Z,13.84
2017-10-17T07:17:42.216Z,13.88
2017-10-17T07:18:22.747Z,13.85
2017-10-17T07:19:03.283Z,13.89
2017-10-17T07:19:43.807Z,13.85
2017-10-17T07:20:24.345Z,13.88
2017-10-17T07:21:04.928Z,13.88
2017-10-17T07:21:45.456Z,13.91
2017-10-17T07:22:25.982Z,13.95
2017-10-17T07:23:06.520Z,13.89
2017-10-17T07:23:47.077Z,13.96
2017-10-17T07:24:27.589Z,13.96
2017-10-17T07:25:08.126Z,13.99
2017-10-17T07:25:48.667Z,14.02
2017-10-17T07:26:29.254Z,13.96
2017-10-17T07:27:09.786Z,14
2017-10-17T07:27:50.348Z,14
2017-10-17T07:28:30.864Z,14.03
2017-10-17T07:29:11.403Z,14.09
2017-10-17T07:29:51.933Z,14
2017-10-17T07:30:32.475Z,14.15
2017-10-17T07:31:13.006Z,14.02
2017-10-17T07:31:53.540Z,14.18
2017-10-17T07:32:34.069Z,14.07
2017-10-17T07:33:14.598Z,14.17
2017-10-17T07:33:55.146Z,14.12
2017-10-17T07:34:35.679Z,14.21
2017-10-17T07:35:16.198Z,14.12
2017-10-17T07:35:56.735Z,14.17
2017-10-17T07:36:37.267Z,14.2
2017-10-17T07:37:17.837Z,14.07
2017-10-17T07:37:58.402Z,14.17
2017-10-17T07:38:38.903Z,14.24
2017-10-17T07:39:19.431Z,14.24
2017-10-17T07:39:59.957Z,14.24
2017-10-17T07:40:40.482Z,14.21
2017-10-17T07:41:21.003Z,14.22
2017-10-17T07:42:01.548Z,14.2
2017-10-17T07:42:42.085Z,14.27
2017-10-17T07:43:22.619Z,14.2
2017-10-17T07:44:03.156Z,14.28
2017-10-17T07:44:43.686Z,14.27
2017-10-17T07:45:24.212Z,14.37
2017-10-17T07:46:04.756Z,14.2
2017-10-17T07:46:45.288Z,14.25
2017-10-17T07:47:25.820Z,14.21
2017-10-17T07:48:06.353Z,14.32
2017-10-17T07:48:46.883Z,14.2
2017-10-17T07:49:27.401Z,14.33
2017-10-17T07:50:07.939Z,14.33
2017-10-17T07:50:48.483Z,14.35
2017-10-17T07:51:29.031Z,14.33
2017-10-17T07:52:09.568Z,14.4
2017-10-17T07:52:50.104Z,14.45
2017-10-17T07:53:30.631Z,14.45
2017-10-17T07:54:11.161Z,14.39
2017-10-17T07:54:51.703Z,14.5
2017-10-17T07:55:32.213Z,14.42
2017-10-17T07:56:12.732Z,14.37
2017-10-17T07:56:53.271Z,14.46
2017-10-17T07:57:33.806Z,14.51
2017-10-17T07:58:14.338Z,14.5
2017-10-17T07:58:54.878Z,14.45
2017-10-17T07:59:35.412Z,14.52
2017-10-17T08:00:16.022Z,14.5
2017-10-17T08:00:56.516Z,14.6
2017-10-17T08:01:37.135Z,14.52
2017-10-17T08:02:17.666Z,14.55
2017-10-17T08:02:58.180Z,14.55
2017-10-17T08:03:38.693Z,14.58
2017-10-17T08:04:19.221Z,14.6
2017-10-17T08:04:59.764Z,14.6
2017-10-17T08:05:40.271Z,14.65
2017-10-17T08:06:20.808Z,14.69
2017-10-17T08:07:01.344Z,14.75
2017-10-17T08:07:41.891Z,14.7
2017-10-17T08:08:22.395Z,14.69
2017-10-17T08:09:02.916Z,14.72
2017-10-17T08:09:43.455Z,14.73
2017-10-17T08:10:23.995Z,14.72
2017-10-17T08:11:04.509Z,14.75
2017-10-17T08:11:45.045Z,14.77
2017-10-17T08:12:25.566Z,14.68
2017-10-17T08:13:06.100Z,14.68
2017-10-17T08:13:46.627Z,14.68
2017-10-17T08:14:27.160Z,14.65
2017-10-17T08:15:07.700Z,14.69
2017-10-17T08:15:48.235Z,14.72
2017-10-17T08:16:28.776Z,14.7
2017-10-17T08:17:09.311Z,14.75
2017-10-17T08:17:49.865Z,14.75
2017-10-17T08:18:30.392Z,14.77
2017-10-17T08:19:10.918Z,14.75
2017-10-17T08:19:51.454Z,14.77
2017-10-17T08:20:31.972Z,14.78
2017-10-17T08:21:12.486Z,14.86
2017-10-17T08:21:53.024Z,14.89
2017-10-17T08:22:33.579Z,14.86
2017-10-17T08:23:14.097Z,14.91
2017-10-17T08:23:54.616Z,14.96
2017-10-17T08:24:35.139Z,14.98
2017-10-17T08:25:15.673Z,14.95
2017-10-17T08:25:56.195Z,15.02
2017-10-17T08:26:36.733Z,15.03
2017-10-17T08:27:17.264Z,15.09
2017-10-17T08:27:57.785Z,15.09
2017-10-17T08:28:38.303Z,15.21
2017-10-17T08:29:18.852Z,15.11
2017-10-17T08:29:59.380Z,15.17
2017-10-17T08:30:39.912Z,15.23
2017-10-17T08:31:20.447Z,15.2
2017-10-17T08:32:00.985Z,15.31
2017-10-17T08:32:41.500Z,15.35
2017-10-17T08:33:22.035Z,15.34
2017-10-17T08:34:02.574Z,15.34
2017-10-17T08:34:43.101Z,15.39
2017-10-17T08:35:23.628Z,15.47
2017-10-17T08:36:04.138Z,15.49
2017-10-17T08:36:44.681Z,15.54
2017-10-17T08:37:25.197Z,15.56
2017-10-17T08:38:05.734Z,15.62
2017-10-17T08:38:46.286Z,15.67
2017-10-17T08:39:26.814Z,15.68
2017-10-17T08:40:07.352Z,15.71
2017-10-17T08:40:47.890Z,15.78
2017-10-17T08:41:28.432Z,15.78
2017-10-17T08:42:08.973Z,15.82
2017-10-17T08:42:49.499Z,15.83
2017-10-17T08:43:30.041Z,15.92
2017-10-17T08:44:10.588Z,15.93
2017-10-17T08:44:51.123Z,15.86
2017-10-17T08:45:31.658Z,15.86
2017-10-17T08:46:12.196Z,15.84
2017-10-17T08:46:52.744Z,15.93
2017-10-17T08:47:33.294Z,16
2017-10-17T08:48:13.838Z,16.07
2017-10-17T08:48:54.361Z,15.97